createdAt,value
2018-10-16T00:02:26.573Z,101270.90
2018-10-16T00:04:54.739Z,101272.27
2018-10-16T00:07:22.915Z,101267.57
2018-10-16T00:09:51.085Z,101269.33
2018-10-16T00:12:19.261Z,101274.63
2018-10-16T00:14:47.434Z,101267.36
2018-10-16T00:17:15.582Z,101280.20
2018-10-16T00:19:43.729Z,101279.03
2018-10-16T00:22:11.933Z,101286.23
2018-10-16T00:24:40.125Z,101288.47
2018-10-16T00:27:08.347Z,101281.89
2018-10-16T00:29:36.615Z,101275.43
2018-10-16T00:32:04.841Z,101282.35
2018-10-16T00:34:33.025Z,101283.73
2018-10-16T00:37:01.289Z,101282.95
2018-10-16T00:39:29.467Z,101283.66
2018-10-16T00:41:58.316Z,101283.88
2018-10-16T00:44:26.681Z,101279.27
2018-10-16T00:46:54.867Z,101281.59
2018-10-16T00:49:23.096Z,101283.14
2018-10-16T00:51:51.340Z,101294.40
2018-10-16T00:54:19.648Z,101296.05
2018-10-16T00:56:47.837Z,101296.30
2018-10-16T00:59:15.999Z,101294.37
2018-10-16T01:01:44.253Z,101298.70
2018-10-16T01:04:12.449Z,101305.37
2018-10-16T01:06:40.622Z,101296.80
2018-10-16T01:09:13.360Z,101295.91
2018-10-16T01:11:41.629Z,101291.06
2018-10-16T01:14:09.906Z,101288.30
2018-10-16T01:16:38.100Z,101283.94
2018-10-16T01:19:06.641Z,101288.63
2018-10-16T01:21:34.960Z,101292.11
2018-10-16T01:24:03.161Z,101286.09
2018-10-16T01:26:31.308Z,101291.06
2018-10-16T01:28:59.585Z,101295.97
2018-10-16T01:31:28.061Z,101290.80
2018-10-16T01:33:56.236Z,101284.19
2018-10-16T01:36:24.389Z,101277.59
2018-10-16T01:38:52.624Z,101274.22
2018-10-16T01:41:20.839Z,101279.68
2018-10-16T01:43:49.139Z,101281.02
2018-10-16T01:46:17.422Z,101286.09
2018-10-16T01:48:45.616Z,101283.35
2018-10-16T01:51:13.761Z,101294.48
2018-10-16T01:53:41.956Z,101299.78
2018-10-16T01:56:10.136Z,101297.18
2018-10-16T01:58:38.350Z,101295.09
2018-10-16T02:01:06.504Z,101287.38
2018-10-16T02:03:34.758Z,101288.97
2018-10-16T02:06:02.942Z,101295.63
2018-10-16T02:08:31.085Z,101294.63
2018-10-16T02:10:59.261Z,101295.73
2018-10-16T02:13:27.544Z,101299.70
2018-10-16T02:15:55.719Z,101299.20
2018-10-16T02:18:24.046Z,101290.78
2018-10-16T02:20:52.234Z,101299.05
2018-10-16T02:23:20.391Z,101295.73
2018-10-16T02:25:48.516Z,101291.64
2018-10-16T02:28:16.723Z,101286.98
2018-10-16T02:30:44.947Z,101289.34
2018-10-16T02:33:13.120Z,101291.47
2018-10-16T02:35:41.248Z,101298.84
2018-10-16T02:38:09.384Z,101303.65
2018-10-16T02:40:37.555Z,101300.18
2018-10-16T02:43:05.948Z,101300.63
2018-10-16T02:45:34.090Z,101298.19
2018-10-16T02:48:02.216Z,101299.39
2018-10-16T02:50:30.368Z,101304.73
2018-10-16T02:52:58.576Z,101305.14
2018-10-16T02:55:26.744Z,101303.16
2018-10-16T02:57:55.029Z,101298.79
2018-10-16T03:00:23.192Z,101294.13
2018-10-16T03:02:51.364Z,101293.53
2018-10-16T03:05:19.614Z,101296.83
2018-10-16T03:07:47.789Z,101300.63
2018-10-16T03:10:16.030Z,101309.38
2018-10-16T03:12:44.162Z,101315.67
2018-10-16T03:15:13.505Z,101310.73
2018-10-16T03:17:41.784Z,101301.62
2018-10-16T03:20:10.966Z,101298.80
2018-10-16T03:22:39.832Z,101308.42
2018-10-16T03:25:09.383Z,101312.37
2018-10-16T03:27:37.842Z,101306.73
2018-10-16T03:30:07.279Z,101307.98
2018-10-16T03:32:35.379Z,101302.83
2018-10-16T03:35:03.540Z,101307.48
2018-10-16T03:37:31.766Z,101304.22
2018-10-16T03:39:59.960Z,101310.14
2018-10-16T03:42:28.114Z,101303.65
2018-10-16T03:44:56.356Z,101307.47
2018-10-16T03:47:25.407Z,101311.15
2018-10-16T03:49:53.582Z,101313.98
2018-10-16T03:52:21.770Z,101318.98
2018-10-16T03:54:49.901Z,101318.86
2018-10-16T03:57:18.120Z,101320.66
2018-10-16T03:59:46.264Z,101318.81
2018-10-16T04:02:14.450Z,101315.37
2018-10-16T04:04:42.913Z,101320.36
2018-10-16T04:07:11.274Z,101330.44
2018-10-16T04:09:39.438Z,101332.95
2018-10-16T04:12:07.601Z,101333.22
2018-10-16T04:14:35.861Z,101333.28
2018-10-16T04:17:04.042Z,101323.96
2018-10-16T04:19:32.228Z,101316.59
2018-10-16T04:22:01.505Z,101320.45
2018-10-16T04:24:29.678Z,101322.88
2018-10-16T04:26:57.967Z,101315.84
2018-10-16T04:29:26.722Z,101321.06
2018-10-16T04:31:54.973Z,101324.00
2018-10-16T04:34:23.212Z,101330.88
2018-10-16T04:36:51.382Z,101327.53
2018-10-16T04:39:19.601Z,101327.61
2018-10-16T04:41:48.250Z,101332.13
2018-10-16T04:44:16.539Z,101336.16
2018-10-16T04:46:51.266Z,101338.41
2018-10-16T04:49:19.391Z,101339.48
2018-10-16T04:51:47.537Z,101344.80
2018-10-16T04:54:15.821Z,101347.75
2018-10-16T04:56:44.135Z,101353.48
2018-10-16T04:59:12.305Z,101355.31
2018-10-16T05:01:40.787Z,101356.70
2018-10-16T05:04:09.071Z,101354.23
2018-10-16T05:06:37.441Z,101351.31
2018-10-16T05:09:06.966Z,101350.08
2018-10-16T05:11:39.317Z,101362.66
2018-10-16T05:14:07.572Z,101368.92
2018-10-16T05:19:10.200Z,101370.41
2018-10-16T05:21:38.387Z,101377.23
2018-10-16T05:24:06.921Z,101369.16
2018-10-16T05:26:35.874Z,101368.41
2018-10-16T05:29:04.109Z,101372.84
2018-10-16T05:31:32.332Z,101368.31
2018-10-16T05:34:04.761Z,101373.38
2018-10-16T05:36:32.935Z,101375.17
2018-10-16T05:39:01.145Z,101381.83
2018-10-16T05:41:29.525Z,101380.81
2018-10-16T05:43:57.750Z,101382.99
2018-10-16T05:46:26.361Z,101390.25
2018-10-16T05:48:54.835Z,101393.81
2018-10-16T05:51:23.057Z,101399.31
2018-10-16T05:53:51.393Z,101399.12
2018-10-16T05:56:19.676Z,101407.73
2018-10-16T05:58:47.817Z,101400.31
2018-10-16T06:01:15.996Z,101400.66
2018-10-16T06:03:44.315Z,101405.52
2018-10-16T06:06:19.471Z,101409.92
2018-10-16T06:08:47.605Z,101403.02
2018-10-16T06:11:15.817Z,101407.20
2018-10-16T06:13:44.025Z,101405.29
2018-10-16T06:16:12.224Z,101400.63
2018-10-16T06:18:40.441Z,101403.54
2018-10-16T06:21:08.647Z,101397.09
2018-10-16T06:23:36.830Z,101399.90
2018-10-16T06:26:05.241Z,101402.91
2018-10-16T06:28:33.418Z,101401.57
2018-10-16T06:31:02.104Z,101406.60
2018-10-16T06:33:31.461Z,101405.12
2018-10-16T06:35:59.719Z,101410.17
2018-10-16T06:38:28.009Z,101408.86
2018-10-16T06:40:56.368Z,101399.87
2018-10-16T06:43:24.479Z,101403.13
2018-10-16T06:45:52.821Z,101400.78
2018-10-16T06:48:21.251Z,101402.83
2018-10-16T06:50:49.249Z,101404.41
2018-10-16T06:53:18.136Z,101408.61
2018-10-16T06:55:46.413Z,101407.73
2018-10-16T06:58:14.651Z,101408.53
2018-10-16T07:00:42.817Z,101406.42
2018-10-16T07:03:11.026Z,101404.99
2018-10-16T07:05:39.915Z,101410.25
2018-10-16T07:08:08.133Z,101416.63
2018-10-16T07:10:36.319Z,101413.31
2018-10-16T07:13:04.552Z,101416.87
2018-10-16T07:15:33.137Z,101417.16
2018-10-16T07:18:01.976Z,101415.52
2018-10-16T07:20:30.187Z,101424.52
2018-10-16T07:22:58.401Z,101425.30
2018-10-16T07:25:26.763Z,101424.12
2018-10-16T07:27:55.297Z,101423.27
2018-10-16T07:30:23.616Z,101430.81
2018-10-16T07:32:52.583Z,101431.41
2018-10-16T07:35:20.756Z,101428.90
2018-10-16T07:37:49.455Z,101430.04
2018-10-16T07:40:17.693Z,101428.23
2018-10-16T07:42:46.053Z,101431.19
2018-10-16T07:45:14.283Z,101434.55
2018-10-16T07:47:43.075Z,101424.05
2018-10-16T07:50:11.904Z,101422.85
2018-10-16T07:52:40.140Z,101424.88
2018-10-16T07:55:11.624Z,101426.05
2018-10-16T07:57:39.836Z,101429.70
2018-10-16T08:00:09.413Z,101431.49
2018-10-16T08:02:38.925Z,101427.76
2018-10-16T08:05:08.899Z,101423.13
2018-10-16T08:07:37.876Z,101422.64
2018-10-16T08:10:07.973Z,101428.38
2018-10-16T08:12:36.265Z,101435.94
2018-10-16T08:15:05.165Z,101439.80
2018-10-16T08:17:33.605Z,101429.72
2018-10-16T08:20:01.799Z,101432.20
2018-10-16T08:22:30.607Z,101434.72
2018-10-16T08:24:58.759Z,101441.94
2018-10-16T08:27:26.937Z,101440.34
2018-10-16T08:29:55.169Z,101435.23
2018-10-16T08:32:23.349Z,101434.40
2018-10-16T08:34:51.521Z,101434.45
2018-10-16T08:37:27.262Z,101439.63
2018-10-16T08:39:58.374Z,101437.50
2018-10-16T08:42:37.032Z,101442.09
2018-10-16T08:45:17.133Z,101444.74
2018-10-16T08:47:57.358Z,101450.28
2018-10-16T08:50:38.136Z,101446.20
2018-10-16T08:53:06.324Z,101447.58
2018-10-16T08:55:35.137Z,101452.02
2018-10-16T08:58:04.099Z,101456.70
2018-10-16T09:00:32.670Z,101453.99
2018-10-16T09:03:00.968Z,101451.50
2018-10-16T09:05:29.622Z,101450.69
2018-10-16T09:07:57.858Z,101445.77
2018-10-16T09:10:26.501Z,101446.33
2018-10-16T09:12:54.827Z,101449.20
2018-10-16T09:15:23.801Z,101439.51
2018-10-16T09:17:51.965Z,101443.37
2018-10-16T09:20:20.377Z,101447.37
2018-10-16T09:22:48.589Z,101440.40
2018-10-16T09:25:16.751Z,101445.15
2018-10-16T09:27:44.955Z,101445.31
2018-10-16T09:30:14.131Z,101452.24
2018-10-16T09:32:42.734Z,101465.08
2018-10-16T09:35:12.123Z,101459.34
2018-10-16T09:37:40.487Z,101462.30
2018-10-16T09:40:10.867Z,101463.05
2018-10-16T09:42:39.112Z,101453.76
2018-10-16T09:45:08.391Z,101445.31
2018-10-16T09:47:36.589Z,101444.98
2018-10-16T09:50:05.759Z,101452.70
2018-10-16T09:52:33.964Z,101451.23
2018-10-16T09:55:02.134Z,101436.45
2018-10-16T09:57:30.362Z,101435.76
2018-10-16T09:59:59.452Z,101433.61
2018-10-16T10:02:27.783Z,101433.61
2018-10-16T10:04:56.165Z,101436.72
2018-10-16T10:07:24.380Z,101435.19
2018-10-16T10:09:52.614Z,101435.01
2018-10-16T10:12:20.765Z,101429.75
2018-10-16T10:14:49.719Z,101429.84
2018-10-16T10:17:17.994Z,101427.78
2018-10-16T10:19:46.317Z,101428.36
2018-10-16T10:22:15.247Z,101423.02
2018-10-16T10:24:43.407Z,101425.86
2018-10-16T10:27:15.763Z,101423.95
2018-10-16T10:29:44.088Z,101424.91
2018-10-16T10:32:12.222Z,101424.47
2018-10-16T10:34:40.363Z,101421.77
2018-10-16T10:37:08.542Z,101423.75
2018-10-16T10:39:36.719Z,101420.36
2018-10-16T10:42:05.013Z,101424.86
2018-10-16T10:44:33.178Z,101423.70
2018-10-16T10:47:01.426Z,101421.03
2018-10-16T10:49:29.641Z,101426.45
2018-10-16T10:51:58.078Z,101426.61
2018-10-16T10:54:26.337Z,101420.65
2018-10-16T10:56:54.752Z,101419.81
2018-10-16T10:59:22.883Z,101427.14
2018-10-16T11:01:51.164Z,101425.23
2018-10-16T11:04:19.378Z,101426.15
2018-10-16T11:06:47.614Z,101427.10
2018-10-16T11:09:15.893Z,101429.13
2018-10-16T11:11:49.532Z,101425.47
2018-10-16T11:14:17.770Z,101421.20
2018-10-16T11:16:46.086Z,101415.22
2018-10-16T11:19:14.412Z,101416.24
2018-10-16T11:21:43.110Z,101417.50
2018-10-16T11:24:11.328Z,101417.70
2018-10-16T11:26:39.483Z,101419.69
2018-10-16T11:29:07.700Z,101416.83
2018-10-16T11:31:40.320Z,101417.27
2018-10-16T11:34:08.695Z,101411.34
2018-10-16T11:36:36.997Z,101404.02
2018-10-16T11:39:07.942Z,101412.17
2018-10-16T11:41:36.813Z,101409.61
2018-10-16T11:44:05.283Z,101407.53
2018-10-16T11:46:33.470Z,101410.27
2018-10-16T11:49:01.676Z,101409.48
2018-10-16T11:51:29.919Z,101408.68
2018-10-16T11:53:58.302Z,101412.75
2018-10-16T11:56:26.528Z,101406.56
2018-10-16T11:58:54.892Z,101408.82
2018-10-16T12:01:23.708Z,101414.47
2018-10-16T12:03:56.104Z,101409.27
2018-10-16T12:06:24.408Z,101417.92
2018-10-16T12:08:52.722Z,101415.55
2018-10-16T12:11:21.321Z,101416.80
2018-10-16T12:13:49.618Z,101412.79
2018-10-16T12:16:18.587Z,101407.05
2018-10-16T12:18:54.680Z,101407.84
2018-10-16T12:21:24.446Z,101409.56
2018-10-16T12:23:52.678Z,101403.55
2018-10-16T12:26:21.886Z,101414.11
2018-10-16T12:28:50.254Z,101403.13
2018-10-16T12:31:18.589Z,101400.14
2018-10-16T12:33:46.803Z,101406.20
2018-10-16T12:36:15.038Z,101405.30
2018-10-16T12:38:43.372Z,101403.99
2018-10-16T12:41:12.547Z,101407.21
2018-10-16T12:43:41.719Z,101401.84
2018-10-16T12:46:09.797Z,101407.20
2018-10-16T12:48:38.013Z,101405.88
2018-10-16T12:51:06.301Z,101407.21
2018-10-16T12:53:34.610Z,101404.50
2018-10-16T12:56:03.799Z,101406.37
2018-10-16T12:58:32.035Z,101402.09
2018-10-16T13:01:00.253Z,101405.21
2018-10-16T13:03:28.613Z,101405.11
2018-10-16T13:05:56.798Z,101411.74
2018-10-16T13:08:25.148Z,101401.69
2018-10-16T13:10:53.415Z,101403.97
2018-10-16T13:13:21.592Z,101400.44
2018-10-16T13:15:50.163Z,101405.20
2018-10-16T13:18:18.393Z,101406.49
2018-10-16T13:20:46.612Z,101405.10
2018-10-16T13:23:15.386Z,101405.17
2018-10-16T13:25:43.629Z,101408.17
2018-10-16T13:28:11.945Z,101408.54
2018-10-16T13:30:40.638Z,101412.50
2018-10-16T13:33:08.974Z,101417.88
2018-10-16T13:35:41.361Z,101414.70
2018-10-16T13:38:09.757Z,101413.71
2018-10-16T13:40:38.017Z,101418.03
2018-10-16T13:43:06.372Z,101417.10
2018-10-16T13:45:34.603Z,101414.59
2018-10-16T13:48:02.933Z,101413.27
2018-10-16T13:50:31.221Z,101412.83
2018-10-16T13:52:59.558Z,101407.07
2018-10-16T13:55:27.815Z,101411.00
2018-10-16T13:57:56.519Z,101407.07
2018-10-16T14:00:25.682Z,101407.92
2018-10-16T14:02:54.208Z,101410.88
2018-10-16T14:05:22.472Z,101403.80
2018-10-16T14:07:50.820Z,101409.58
2018-10-16T14:10:20.326Z,101407.42
2018-10-16T14:12:49.178Z,101408.25
2018-10-16T14:15:17.926Z,101409.45
2018-10-16T14:17:46.187Z,101410.36
2018-10-16T14:20:14.424Z,101412.81
2018-10-16T14:22:43.310Z,101411.30
2018-10-16T14:25:12.854Z,101410.41
2018-10-16T14:27:42.659Z,101411.34
2018-10-16T14:30:15.856Z,101406.98
2018-10-16T14:32:44.452Z,101406.44
2018-10-16T14:35:13.273Z,101404.23
2018-10-16T14:37:41.510Z,101408.19
2018-10-16T14:40:12.046Z,101409.03
2018-10-16T14:42:40.515Z,101406.91
2018-10-16T14:45:10.436Z,101406.02
2018-10-16T14:47:38.765Z,101407.82
2018-10-16T14:50:08.727Z,101410.06
2018-10-16T14:52:36.926Z,101415.29
2018-10-16T14:55:06.452Z,101420.55
2018-10-16T14:57:35.134Z,101419.20
2018-10-16T15:00:03.681Z,101420.56
2018-10-16T15:02:31.895Z,101420.95
2018-10-16T15:05:00.308Z,101427.77
2018-10-16T15:07:28.824Z,101422.44
2018-10-16T15:09:57.357Z,101424.53
2018-10-16T15:12:30.526Z,101421.20
2018-10-16T15:14:59.189Z,101425.45
2018-10-16T15:17:28.122Z,101423.34
2018-10-16T15:19:56.578Z,101429.48
2018-10-16T15:22:24.795Z,101428.52
2018-10-16T15:24:53.112Z,101430.50
2018-10-16T15:27:24.665Z,101436.24
2018-10-16T15:29:54.461Z,101433.44
2018-10-16T15:32:23.422Z,101444.08
2018-10-16T15:34:51.712Z,101437.03
2018-10-16T15:37:19.866Z,101450.75
2018-10-16T15:39:48.245Z,101438.80
2018-10-16T15:42:16.459Z,101439.89
2018-10-16T15:44:44.624Z,101433.21
2018-10-16T15:47:13.024Z,101431.87
2018-10-16T15:49:41.332Z,101437.91
2018-10-16T15:52:12.274Z,101439.22
2018-10-16T15:54:40.400Z,101437.09
2018-10-16T15:57:09.496Z,101442.22
2018-10-16T15:59:37.774Z,101446.06
2018-10-16T16:02:06.183Z,101441.20
2018-10-16T16:04:34.436Z,101441.61
2018-10-16T16:07:02.818Z,101445.81
2018-10-16T16:09:31.125Z,101446.98
2018-10-16T16:11:59.691Z,101455.05
2018-10-16T16:14:27.946Z,101456.20
2018-10-16T16:16:56.467Z,101458.03
2018-10-16T16:19:24.753Z,101457.19
2018-10-16T16:21:53.153Z,101460.69
2018-10-16T16:24:24.312Z,101468.92
2018-10-16T16:26:52.650Z,101473.66
2018-10-16T16:29:20.882Z,101471.21
2018-10-16T16:31:49.155Z,101472.12
2018-10-16T16:34:17.444Z,101474.75
2018-10-16T16:36:45.727Z,101480.13
2018-10-16T16:39:14.967Z,101477.50
2018-10-16T16:41:43.530Z,101487.83
2018-10-16T16:44:12.207Z,101484.22
2018-10-16T16:46:41.828Z,101476.88
2018-10-16T16:49:10.351Z,101484.71
2018-10-16T16:51:38.570Z,101491.17
2018-10-16T16:54:06.974Z,101485.40
2018-10-16T16:56:36.368Z,101492.94
2018-10-16T16:59:04.670Z,101487.21
2018-10-16T17:01:32.874Z,101486.62
2018-10-16T17:04:01.443Z,101492.77
2018-10-16T17:06:29.764Z,101488.20
2018-10-16T17:08:58.240Z,101500.36
2018-10-16T17:11:26.622Z,101500.34
2018-10-16T17:13:55.404Z,101494.89
2018-10-16T17:16:24.364Z,101499.27
2018-10-16T17:18:52.612Z,101500.97
2018-10-16T17:21:20.918Z,101502.49
2018-10-16T17:23:49.297Z,101507.41
2018-10-16T17:26:17.918Z,101509.81
2018-10-16T17:28:46.181Z,101512.58
2018-10-16T17:31:14.778Z,101513.30
2018-10-16T17:33:43.286Z,101513.02
2018-10-16T17:36:11.620Z,101510.95
2018-10-16T17:38:41.500Z,101515.20
2018-10-16T17:41:09.777Z,101520.45
2018-10-16T17:43:37.998Z,101518.68
2018-10-16T17:46:06.477Z,101520.63
2018-10-16T17:48:34.740Z,101520.06
2018-10-16T17:51:03.107Z,101517.63
2018-10-16T17:53:31.361Z,101520.61
2018-10-16T17:56:03.389Z,101528.05
2018-10-16T17:58:31.776Z,101530.62
2018-10-16T18:01:00.050Z,101530.89
2018-10-16T18:03:28.310Z,101522.64
2018-10-16T18:05:56.702Z,101519.59
2018-10-16T18:08:25.785Z,101528.42
2018-10-16T18:10:54.115Z,101522.06
2018-10-16T18:13:22.486Z,101513.65
2018-10-16T18:15:50.886Z,101524.48
2018-10-16T18:18:19.218Z,101520.42
2018-10-16T18:20:47.481Z,101520.12
2018-10-16T18:23:19.963Z,101522.23
2018-10-16T18:25:48.329Z,101522.59
2018-10-16T18:28:16.588Z,101520.35
2018-10-16T18:30:44.906Z,101519.50
2018-10-16T18:33:13.290Z,101529.06
2018-10-16T18:35:41.590Z,101529.25
2018-10-16T18:38:09.838Z,101526.73
2018-10-16T18:40:43.312Z,101532.55
2018-10-16T18:43:11.690Z,101528.51
2018-10-16T18:45:39.986Z,101532.43
2018-10-16T18:48:08.553Z,101533.38
2018-10-16T18:50:37.043Z,101535.05
2018-10-16T18:53:06.040Z,101524.04
2018-10-16T18:55:34.505Z,101527.36
2018-10-16T18:58:02.885Z,101527.30
2018-10-16T19:00:31.250Z,101532.23
2018-10-16T19:02:59.705Z,101528.16
2018-10-16T19:05:28.045Z,101531.53
2018-10-16T19:07:56.559Z,101528.05
2018-10-16T19:10:24.974Z,101526.97
2018-10-16T19:12:54.108Z,101528.41
2018-10-16T19:15:23.103Z,101525.64
2018-10-16T19:17:51.442Z,101527.04
2018-10-16T19:20:19.793Z,101531.47
2018-10-16T19:22:48.332Z,101527.69
2018-10-16T19:25:19.574Z,101532.63
2018-10-16T19:27:48.168Z,101531.69
2018-10-16T19:30:16.560Z,101528.56
2018-10-16T19:32:44.996Z,101528.94
2018-10-16T19:35:16.393Z,101529.00
2018-10-16T19:37:44.872Z,101524.93
2018-10-16T19:40:14.151Z,101522.03
2018-10-16T19:42:42.626Z,101524.71
2018-10-16T19:45:11.852Z,101522.45
2018-10-16T19:47:40.099Z,101525.87
2018-10-16T19:50:09.171Z,101525.75
2018-10-16T19:52:37.681Z,101527.98
2018-10-16T19:55:06.261Z,101527.26
2018-10-16T19:57:34.612Z,101522.44
2018-10-16T20:00:03.028Z,101522.23
2018-10-16T20:02:31.373Z,101523.31
2018-10-16T20:04:59.700Z,101523.53
2018-10-16T20:07:28.082Z,101520.27
2018-10-16T20:09:57.868Z,101526.80
2018-10-16T20:12:26.175Z,101526.00
2018-10-16T20:14:54.505Z,101520.34
2018-10-16T20:17:22.968Z,101520.70
2018-10-16T20:19:51.269Z,101515.39
2018-10-16T20:22:19.539Z,101520.19
2018-10-16T20:24:47.915Z,101519.16
2018-10-16T20:27:16.206Z,101513.30
2018-10-16T20:29:44.508Z,101518.83
2018-10-16T20:32:12.866Z,101519.08
2018-10-16T20:34:41.467Z,101526.29
2018-10-16T20:37:11.003Z,101511.81
2018-10-16T20:39:39.521Z,101514.63
2018-10-16T20:42:07.846Z,101517.60
2018-10-16T20:44:36.174Z,101515.77
2018-10-16T20:47:04.768Z,101510.06
2018-10-16T20:49:33.079Z,101514.21
2018-10-16T20:52:01.440Z,101504.87
2018-10-16T20:54:29.720Z,101506.08
2018-10-16T20:56:58.009Z,101507.80
2018-10-16T20:59:26.421Z,101508.80
2018-10-16T21:01:55.251Z,101508.36
2018-10-16T21:04:23.554Z,101509.02
2018-10-16T21:06:52.022Z,101514.20
2018-10-16T21:09:20.238Z,101511.45
2018-10-16T21:11:48.583Z,101517.20
2018-10-16T21:14:16.796Z,101519.25
2018-10-16T21:16:45.058Z,101511.79
2018-10-16T21:19:13.356Z,101512.45
2018-10-16T21:21:41.586Z,101510.75
2018-10-16T21:24:09.813Z,101504.03
2018-10-16T21:26:38.134Z,101505.45
2018-10-16T21:29:06.590Z,101507.71
2018-10-16T21:31:34.830Z,101507.02
2018-10-16T21:34:03.171Z,101510.83
2018-10-16T21:36:31.388Z,101511.87
2018-10-16T21:38:59.600Z,101515.54
2018-10-16T21:41:27.871Z,101515.61
2018-10-16T21:43:56.114Z,101510.75
2018-10-16T21:46:24.339Z,101510.97
2018-10-16T21:48:52.687Z,101511.81
2018-10-16T21:51:20.962Z,101512.23
2018-10-16T21:53:49.208Z,101515.61
2018-10-16T21:56:17.455Z,101522.88
2018-10-16T21:58:45.824Z,101515.61
2018-10-16T22:01:14.124Z,101518.33
2018-10-16T22:03:42.314Z,101518.22
2018-10-16T22:06:10.542Z,101517.53
2018-10-16T22:08:38.745Z,101523.09
2018-10-16T22:11:07.035Z,101517.03
2018-10-16T22:13:35.186Z,101517.45
2018-10-16T22:16:03.544Z,101517.77
2018-10-16T22:18:31.706Z,101520.89
2018-10-16T22:20:59.878Z,101520.59
2018-10-16T22:23:28.049Z,101516.27
2018-10-16T22:25:56.248Z,101514.32
2018-10-16T22:28:24.462Z,101520.83
2018-10-16T22:30:52.709Z,101522.98
2018-10-16T22:33:20.926Z,101519.52
2018-10-16T22:35:49.200Z,101520.89
2018-10-16T22:38:17.452Z,101521.08
2018-10-16T22:40:45.601Z,101521.42
2018-10-16T22:43:13.994Z,101518.47
2018-10-16T22:45:42.098Z,101525.46
2018-10-16T22:48:10.264Z,101518.45
2018-10-16T22:50:38.501Z,101511.73
2018-10-16T22:53:06.739Z,101521.41
2018-10-16T22:55:34.849Z,101517.34
2018-10-16T22:58:03.307Z,101520.98
2018-10-16T23:00:31.519Z,101526.38
2018-10-16T23:02:59.667Z,101521.59
2018-10-16T23:05:28.002Z,101522.58
2018-10-16T23:07:56.175Z,101528.58
2018-10-16T23:10:24.346Z,101523.75
2018-10-16T23:12:57.898Z,101526.77
2018-10-16T23:15:26.051Z,101532.75
2018-10-16T23:17:54.228Z,101531.71
2018-10-16T23:20:22.504Z,101527.15
2018-10-16T23:22:50.685Z,101518.39
2018-10-16T23:25:18.936Z,101523.17
2018-10-16T23:27:47.155Z,101527.77
2018-10-16T23:30:15.310Z,101522.94
2018-10-16T23:32:43.558Z,101529.81
2018-10-16T23:35:11.792Z,101526.36
2018-10-16T23:37:39.990Z,101527.59
2018-10-16T23:40:08.163Z,101525.06
2018-10-16T23:42:36.376Z,101521.78
2018-10-16T23:45:04.824Z,101515.83
2018-10-16T23:47:33.030Z,101519.21
2018-10-16T23:50:01.363Z,101521.02
2018-10-16T23:52:29.561Z,101513.84
2018-10-16T23:54:57.836Z,101507.61
2018-10-16T23:57:26.100Z,101512.59
2018-10-16T23:59:54.265Z,101508.79
